createdAt,value
2018-10-07T00:00:23.946Z,11.80
2018-10-07T00:01:23.847Z,11.90
2018-10-07T00:02:23.775Z,13.30
2018-10-07T00:03:23.660Z,12.50
2018-10-07T00:04:23.573Z,12.30
2018-10-07T00:05:23.481Z,12.50
2018-10-07T00:06:23.381Z,13.20
2018-10-07T00:07:23.304Z,12.70
2018-10-07T00:08:23.200Z,12.80
2018-10-07T00:09:23.103Z,12.70
2018-10-07T00:10:23.010Z,11.80
2018-10-07T00:11:22.917Z,12.10
2018-10-07T00:12:22.839Z,12.30
2018-10-07T00:13:22.729Z,11.40
2018-10-07T00:14:22.632Z,12.60
2018-10-07T00:15:22.539Z,13.20
2018-10-07T00:16:22.448Z,12.00
2018-10-07T00:17:22.372Z,12.30
2018-10-07T00:18:22.262Z,12.90
2018-10-07T00:19:22.167Z,12.90
2018-10-07T00:20:22.072Z,12.60
2018-10-07T00:21:21.983Z,12.70
2018-10-07T00:22:21.901Z,12.90
2018-10-07T00:23:21.793Z,12.90
2018-10-07T00:24:21.700Z,14.70
2018-10-07T00:25:21.608Z,13.70
2018-10-07T00:26:21.518Z,14.00
2018-10-07T00:27:21.438Z,13.90
2018-10-07T00:28:21.329Z,14.50
2018-10-07T00:29:21.237Z,14.20
2018-10-07T00:30:21.137Z,15.30
2018-10-07T00:31:21.047Z,15.40
2018-10-07T00:32:20.956Z,14.90
2018-10-07T00:33:20.880Z,14.20
2018-10-07T00:34:20.764Z,13.70
2018-10-07T00:35:20.674Z,13.60
2018-10-07T00:36:20.683Z,14.40
2018-10-07T00:37:20.490Z,13.40
2018-10-07T00:38:20.407Z,13.20
2018-10-07T00:39:20.301Z,13.10
2018-10-07T00:40:20.205Z,12.60
2018-10-07T00:41:20.116Z,12.80
2018-10-07T00:42:20.020Z,13.10
2018-10-07T00:43:20.050Z,12.40
2018-10-07T00:44:19.829Z,13.30
2018-10-07T00:45:19.743Z,13.10
2018-10-07T00:46:19.645Z,13.30
2018-10-07T00:47:19.553Z,13.50
2018-10-07T00:48:19.478Z,14.50
2018-10-07T00:49:19.369Z,12.60
2018-10-07T00:50:19.395Z,13.50
2018-10-07T00:51:19.176Z,13.20
2018-10-07T00:52:19.091Z,13.80
2018-10-07T00:53:19.017Z,13.20
2018-10-07T00:54:18.901Z,13.30
2018-10-07T00:55:18.808Z,13.70
2018-10-07T00:56:18.714Z,13.10
2018-10-07T00:57:18.720Z,13.60
2018-10-07T00:58:18.541Z,13.60
2018-10-07T00:59:18.431Z,13.20
2018-10-07T01:00:18.337Z,13.90
2018-10-07T01:01:18.245Z,12.90
2018-10-07T01:02:18.152Z,12.90
2018-10-07T01:03:18.077Z,13.30
2018-10-07T01:04:18.073Z,13.20
2018-10-07T01:05:17.874Z,12.80
2018-10-07T01:06:17.777Z,12.90
2018-10-07T01:07:17.684Z,12.80
2018-10-07T01:08:17.610Z,13.20
2018-10-07T01:09:17.499Z,12.80
2018-10-07T01:10:17.406Z,13.30
2018-10-07T01:11:17.416Z,13.10
2018-10-07T01:12:17.218Z,12.40
2018-10-07T01:13:17.140Z,12.10
2018-10-07T01:14:17.035Z,13.00
2018-10-07T01:15:16.933Z,13.00
2018-10-07T01:16:16.847Z,12.90
2018-10-07T01:17:16.751Z,13.30
2018-10-07T01:18:16.772Z,13.30
2018-10-07T01:19:16.561Z,14.00
2018-10-07T01:20:16.467Z,13.40
2018-10-07T01:21:16.375Z,12.90
2018-10-07T01:22:16.281Z,12.40
2018-10-07T01:23:16.203Z,12.90
2018-10-07T01:24:16.096Z,13.30
2018-10-07T01:25:16.101Z,12.60
2018-10-07T01:26:15.908Z,12.90
2018-10-07T01:27:15.809Z,13.50
2018-10-07T01:28:15.738Z,13.90
2018-10-07T01:29:15.630Z,13.10
2018-10-07T01:30:15.533Z,13.10
2018-10-07T01:31:15.441Z,13.10
2018-10-07T01:32:15.450Z,12.90
2018-10-07T01:33:15.268Z,13.30
2018-10-07T01:34:15.154Z,12.80
2018-10-07T01:35:15.061Z,12.50
2018-10-07T01:36:14.970Z,13.30
2018-10-07T01:37:14.877Z,12.90
2018-10-07T01:38:14.801Z,12.70
2018-10-07T01:39:14.797Z,13.30
2018-10-07T01:40:14.594Z,13.20
2018-10-07T01:41:14.502Z,13.30
2018-10-07T01:42:14.409Z,13.60
2018-10-07T01:43:14.335Z,13.80
2018-10-07T01:44:14.217Z,13.30
2018-10-07T01:45:14.124Z,12.80
2018-10-07T01:46:14.031Z,12.60
2018-10-07T01:47:13.938Z,13.70
2018-10-07T01:48:13.862Z,13.70
2018-10-07T01:49:13.748Z,13.70
2018-10-07T01:50:13.660Z,13.10
2018-10-07T01:51:13.565Z,13.40
2018-10-07T01:52:13.473Z,14.60
2018-10-07T01:53:13.392Z,14.30
2018-10-07T01:54:13.282Z,13.40
2018-10-07T01:55:13.186Z,13.40
2018-10-07T01:56:13.093Z,13.60
2018-10-07T01:57:13.002Z,12.90
2018-10-07T01:58:12.926Z,14.00
2018-10-07T01:59:12.841Z,13.80
2018-10-07T02:00:12.720Z,14.00
2018-10-07T02:01:12.626Z,14.00
2018-10-07T02:02:12.532Z,14.10
2018-10-07T02:03:12.453Z,13.30
2018-10-07T02:04:12.345Z,13.70
2018-10-07T02:05:12.320Z,13.90
2018-10-07T02:06:12.160Z,13.80
2018-10-07T02:07:12.065Z,13.40
2018-10-07T02:08:11.983Z,13.50
2018-10-07T02:09:11.872Z,13.90
2018-10-07T02:10:11.784Z,14.10
2018-10-07T02:11:11.689Z,13.80
2018-10-07T02:12:11.592Z,14.20
2018-10-07T02:13:11.518Z,14.20
2018-10-07T02:14:11.407Z,14.00
2018-10-07T02:15:11.315Z,14.50
2018-10-07T02:16:11.220Z,14.60
2018-10-07T02:17:11.133Z,14.20
2018-10-07T02:18:11.034Z,13.70
2018-10-07T02:19:10.955Z,14.00
2018-10-07T02:20:10.860Z,13.90
2018-10-07T02:21:10.752Z,13.40
2018-10-07T02:22:10.964Z,13.50
2018-10-07T02:23:10.562Z,13.60
2018-10-07T02:24:10.485Z,13.40
2018-10-07T02:25:10.374Z,13.80
2018-10-07T02:26:10.282Z,13.10
2018-10-07T02:27:10.186Z,13.60
2018-10-07T02:28:10.094Z,13.70
2018-10-07T02:29:10.019Z,14.20
2018-10-07T02:30:09.902Z,12.40
2018-10-07T02:31:09.811Z,12.70
2018-10-07T02:32:09.715Z,12.70
2018-10-07T02:33:09.630Z,11.90
2018-10-07T02:34:09.542Z,11.40
2018-10-07T02:35:09.433Z,11.10
2018-10-07T02:36:09.339Z,11.10
2018-10-07T02:37:09.244Z,11.20
2018-10-07T02:38:09.157Z,11.80
2018-10-07T02:39:09.068Z,12.70
2018-10-07T02:40:08.974Z,11.80
2018-10-07T02:41:08.867Z,12.00
2018-10-07T02:42:08.777Z,12.40
2018-10-07T02:43:08.679Z,12.00
2018-10-07T02:44:08.602Z,12.00
2018-10-07T02:45:08.487Z,12.30
2018-10-07T02:46:08.397Z,11.60
2018-10-07T02:47:08.302Z,11.30
2018-10-07T02:48:08.205Z,12.10
2018-10-07T02:49:08.127Z,12.50
2018-10-07T02:50:08.016Z,12.30
2018-10-07T02:51:07.923Z,11.60
2018-10-07T02:52:07.828Z,11.90
2018-10-07T02:53:07.793Z,12.90
2018-10-07T02:54:07.656Z,12.10
2018-10-07T02:55:07.545Z,13.00
2018-10-07T02:56:07.449Z,13.90
2018-10-07T02:57:07.357Z,13.40
2018-10-07T02:58:07.258Z,13.90
2018-10-07T02:59:07.182Z,14.30
2018-10-07T03:00:07.076Z,14.50
2018-10-07T03:01:06.979Z,14.50
2018-10-07T03:02:06.883Z,16.00
2018-10-07T03:03:06.790Z,14.50
2018-10-07T03:04:06.721Z,14.70
2018-10-07T03:05:06.599Z,14.20
2018-10-07T03:06:06.509Z,14.00
2018-10-07T03:07:06.409Z,12.40
2018-10-07T03:08:06.314Z,12.80
2018-10-07T03:09:06.245Z,13.80
2018-10-07T03:10:06.128Z,13.00
2018-10-07T03:11:06.034Z,14.30
2018-10-07T03:12:05.936Z,14.00
2018-10-07T03:13:05.842Z,14.30
2018-10-07T03:14:05.762Z,13.60
2018-10-07T03:15:05.654Z,13.60
2018-10-07T03:16:05.560Z,13.70
2018-10-07T03:17:05.485Z,14.40
2018-10-07T03:18:05.371Z,13.50
2018-10-07T03:19:05.292Z,14.90
2018-10-07T03:20:05.180Z,13.20
2018-10-07T03:21:05.084Z,15.10
2018-10-07T03:22:04.989Z,16.50
2018-10-07T03:23:04.899Z,14.00
2018-10-07T03:24:04.818Z,14.70
2018-10-07T03:25:04.709Z,14.60
2018-10-07T03:26:04.611Z,16.50
2018-10-07T03:27:04.520Z,17.30
2018-10-07T03:28:04.424Z,15.50
2018-10-07T03:29:04.350Z,15.30
2018-10-07T03:30:04.247Z,14.70
2018-10-07T03:31:04.142Z,15.40
2018-10-07T03:32:04.046Z,15.40
2018-10-07T03:33:03.952Z,15.90
2018-10-07T03:34:03.877Z,16.60
2018-10-07T03:35:03.765Z,18.90
2018-10-07T03:36:03.670Z,16.20
2018-10-07T03:37:03.574Z,17.30
2018-10-07T03:38:03.585Z,21.00
2018-10-07T03:39:03.401Z,20.00
2018-10-07T03:40:03.300Z,21.90
2018-10-07T03:41:03.200Z,22.70
2018-10-07T03:42:03.101Z,21.40
2018-10-07T03:43:03.010Z,21.10
2018-10-07T03:44:02.930Z,21.30
2018-10-07T03:45:02.927Z,22.00
2018-10-07T03:46:02.722Z,21.00
2018-10-07T03:47:02.632Z,20.40
2018-10-07T03:48:02.542Z,21.50
2018-10-07T03:49:02.460Z,21.40
2018-10-07T03:50:02.349Z,20.30
2018-10-07T03:51:02.255Z,20.10
2018-10-07T03:52:02.260Z,19.50
2018-10-07T03:53:02.068Z,19.30
2018-10-07T03:54:01.986Z,19.40
2018-10-07T03:55:01.876Z,19.90
2018-10-07T03:56:01.784Z,18.70
2018-10-07T03:57:01.690Z,17.80
2018-10-07T03:58:01.594Z,17.40
2018-10-07T03:59:01.620Z,18.10
2018-10-07T04:00:01.404Z,18.10
2018-10-07T04:01:01.319Z,19.30
2018-10-07T04:02:01.219Z,18.40
2018-10-07T04:03:01.130Z,16.70
2018-10-07T04:04:01.050Z,17.50
2018-10-07T04:05:00.937Z,17.30
2018-10-07T04:06:00.946Z,15.20
2018-10-07T04:07:00.752Z,15.30
2018-10-07T04:08:00.654Z,15.80
2018-10-07T04:09:00.562Z,15.50
2018-10-07T04:10:00.479Z,14.60
2018-10-07T04:11:00.371Z,14.50
2018-10-07T04:12:00.276Z,15.00
2018-10-07T04:13:00.286Z,15.60
2018-10-07T04:14:00.093Z,15.30
2018-10-07T04:15:00.015Z,16.30
2018-10-07T04:15:59.902Z,16.10
2018-10-07T04:16:59.807Z,17.00
2018-10-07T04:17:59.713Z,16.80
2018-10-07T04:18:59.621Z,17.30
2018-10-07T04:19:59.632Z,16.20
2018-10-07T04:20:59.430Z,16.30
2018-10-07T04:21:59.338Z,14.70
2018-10-07T04:22:59.244Z,16.90
2018-10-07T04:23:59.153Z,17.30
2018-10-07T04:24:59.073Z,16.00
2018-10-07T04:25:58.958Z,15.30
2018-10-07T04:26:58.970Z,15.40
2018-10-07T04:27:58.771Z,15.20
2018-10-07T04:28:58.681Z,14.40
2018-10-07T04:29:58.611Z,13.90
2018-10-07T04:30:58.489Z,14.70
2018-10-07T04:31:58.396Z,15.40
2018-10-07T04:32:58.301Z,16.40
2018-10-07T04:33:58.311Z,15.70
2018-10-07T04:34:58.130Z,13.80
2018-10-07T04:35:58.019Z,12.50
2018-10-07T04:36:57.930Z,12.90
2018-10-07T04:37:57.834Z,13.20
2018-10-07T04:38:57.742Z,13.30
2018-10-07T04:39:57.741Z,13.50
2018-10-07T04:40:57.655Z,14.60
2018-10-07T04:41:57.463Z,14.50
2018-10-07T04:42:57.369Z,15.80
2018-10-07T04:43:57.268Z,14.30
2018-10-07T04:44:57.187Z,15.00
2018-10-07T04:45:57.082Z,14.30
2018-10-07T04:46:57.111Z,14.20
2018-10-07T04:47:56.895Z,14.30
2018-10-07T04:48:56.796Z,14.80
2018-10-07T04:49:56.716Z,14.10
2018-10-07T04:50:56.606Z,15.00
2018-10-07T04:51:56.514Z,15.70
2018-10-07T04:52:56.421Z,15.70
2018-10-07T04:53:56.322Z,15.40
2018-10-07T04:54:56.247Z,15.30
2018-10-07T04:55:56.137Z,15.20
2018-10-07T04:56:56.046Z,14.60
2018-10-07T04:57:55.948Z,15.40
2018-10-07T04:58:55.857Z,15.00
2018-10-07T04:59:55.775Z,15.60
2018-10-07T05:00:55.667Z,16.40
2018-10-07T05:01:55.571Z,16.40
2018-10-07T05:02:55.476Z,16.00
2018-10-07T05:03:55.381Z,15.10
2018-10-07T05:04:55.303Z,15.30
2018-10-07T05:05:55.193Z,15.60
2018-10-07T05:06:55.101Z,15.30
2018-10-07T05:07:55.004Z,15.80
2018-10-07T05:08:54.910Z,15.00
2018-10-07T05:09:54.832Z,15.50
2018-10-07T05:10:54.732Z,16.00
2018-10-07T05:11:54.681Z,15.60
2018-10-07T05:12:54.532Z,14.30
2018-10-07T05:13:54.440Z,13.40
2018-10-07T05:14:54.362Z,13.40
2018-10-07T05:15:54.250Z,13.70
2018-10-07T05:16:54.158Z,13.80
2018-10-07T05:17:54.066Z,14.20
2018-10-07T05:18:53.968Z,14.80
2018-10-07T05:19:53.895Z,14.90
2018-10-07T05:20:53.821Z,16.00
2018-10-07T05:21:53.692Z,17.10
2018-10-07T05:22:53.590Z,15.10
2018-10-07T05:23:53.498Z,16.10
2018-10-07T05:24:53.422Z,16.90
2018-10-07T05:25:53.307Z,16.10
2018-10-07T05:26:53.211Z,16.80
2018-10-07T05:27:53.117Z,16.50
2018-10-07T05:28:53.025Z,17.00
2018-10-07T05:29:52.943Z,18.40
2018-10-07T05:30:52.834Z,16.30
2018-10-07T05:31:52.744Z,16.90
2018-10-07T05:32:52.649Z,18.70
2018-10-07T05:33:52.553Z,17.40
2018-10-07T05:34:52.479Z,16.70
2018-10-07T05:35:52.361Z,16.20
2018-10-07T05:36:52.271Z,14.80
2018-10-07T05:37:52.174Z,15.30
2018-10-07T05:38:52.080Z,16.10
2018-10-07T05:39:52.002Z,15.50
2018-10-07T05:40:51.894Z,15.40
2018-10-07T05:41:51.798Z,14.90
2018-10-07T05:42:51.700Z,16.10
2018-10-07T05:43:51.607Z,16.50
2018-10-07T05:44:51.629Z,17.10
2018-10-07T05:45:51.421Z,16.70
2018-10-07T05:46:51.324Z,19.30
2018-10-07T05:47:51.227Z,19.70
2018-10-07T05:48:51.135Z,16.50
2018-10-07T05:49:51.042Z,17.40
2018-10-07T05:50:50.961Z,14.80
2018-10-07T05:51:50.850Z,14.80
2018-10-07T05:52:50.754Z,14.50
2018-10-07T05:53:50.658Z,15.20
2018-10-07T05:54:50.569Z,15.80
2018-10-07T05:55:50.533Z,16.10
2018-10-07T05:56:50.488Z,16.20
2018-10-07T05:57:50.285Z,17.10
2018-10-07T05:58:50.188Z,15.20
2018-10-07T05:59:50.097Z,15.80
2018-10-07T06:00:50.016Z,16.80
2018-10-07T06:01:49.998Z,14.50
2018-10-07T06:02:49.809Z,13.10
2018-10-07T06:03:49.714Z,13.20
2018-10-07T06:04:49.622Z,14.30
2018-10-07T06:05:49.543Z,15.50
2018-10-07T06:06:49.429Z,12.90
2018-10-07T06:07:49.337Z,13.40
2018-10-07T06:08:49.241Z,14.30
2018-10-07T06:09:49.147Z,14.40
2018-10-07T06:10:49.172Z,14.60
2018-10-07T06:11:48.957Z,14.30
2018-10-07T06:12:48.865Z,13.90
2018-10-07T06:13:48.765Z,12.80
2018-10-07T06:14:48.719Z,13.90
2018-10-07T06:15:48.592Z,14.00
2018-10-07T06:16:48.485Z,14.50
2018-10-07T06:17:48.490Z,13.00
2018-10-07T06:18:48.295Z,13.60
2018-10-07T06:19:48.213Z,13.60
2018-10-07T06:20:48.122Z,13.30
2018-10-07T06:21:48.006Z,12.60
2018-10-07T06:22:47.910Z,12.20
2018-10-07T06:23:47.822Z,12.20
2018-10-07T06:24:47.828Z,12.30
2018-10-07T06:25:47.649Z,11.60
2018-10-07T06:26:47.542Z,11.30
2018-10-07T06:27:47.447Z,11.40
2018-10-07T06:28:47.351Z,11.30
2018-10-07T06:29:47.283Z,11.40
2018-10-07T06:30:47.177Z,10.60
2018-10-07T06:31:47.187Z,9.80
2018-10-07T06:32:46.976Z,10.20
2018-10-07T06:33:46.877Z,9.80
2018-10-07T06:34:46.788Z,10.50
2018-10-07T06:35:46.705Z,9.10
2018-10-07T06:36:46.598Z,9.30
2018-10-07T06:37:46.503Z,9.40
2018-10-07T06:38:46.543Z,9.30
2018-10-07T06:39:46.324Z,9.10
2018-10-07T06:40:46.241Z,9.10
2018-10-07T06:41:46.134Z,9.00
2018-10-07T06:42:46.043Z,10.70
2018-10-07T06:43:45.952Z,9.10
2018-10-07T06:44:45.859Z,9.00
2018-10-07T06:45:45.913Z,9.10
2018-10-07T06:46:45.675Z,9.50
2018-10-07T06:47:45.582Z,9.90
2018-10-07T06:48:45.492Z,10.60
2018-10-07T06:49:45.397Z,9.50
2018-10-07T06:50:45.325Z,9.80
2018-10-07T06:51:45.332Z,9.70
2018-10-07T06:52:45.129Z,10.50
2018-10-07T06:53:45.035Z,9.50
2018-10-07T06:54:44.950Z,8.60
2018-10-07T06:55:44.873Z,8.10
2018-10-07T06:56:44.768Z,8.50
2018-10-07T06:57:44.675Z,8.40
2018-10-07T06:58:44.591Z,9.50
2018-10-07T06:59:44.542Z,8.60
2018-10-07T07:00:44.423Z,8.50
2018-10-07T07:01:44.318Z,9.10
2018-10-07T07:02:44.231Z,8.70
2018-10-07T07:03:44.143Z,8.90
2018-10-07T07:04:44.052Z,8.70
2018-10-07T07:05:44.086Z,8.60
2018-10-07T07:06:43.883Z,10.80
2018-10-07T07:07:43.792Z,9.20
2018-10-07T07:08:43.699Z,9.30
2018-10-07T07:09:43.612Z,9.40
2018-10-07T07:10:43.542Z,11.10
2018-10-07T07:11:43.441Z,10.90
2018-10-07T07:12:43.354Z,10.00
2018-10-07T07:13:43.259Z,9.80
2018-10-07T07:14:43.173Z,9.80
2018-10-07T07:15:43.100Z,9.20
2018-10-07T07:16:42.999Z,9.80
2018-10-07T07:17:42.916Z,9.80
2018-10-07T07:18:42.823Z,9.30
2018-10-07T07:19:42.757Z,9.30
2018-10-07T07:20:42.663Z,9.50
2018-10-07T07:21:42.564Z,9.40
2018-10-07T07:22:42.471Z,9.20
2018-10-07T07:23:42.384Z,9.40
2018-10-07T07:24:42.299Z,10.10
2018-10-07T07:25:42.227Z,10.40
2018-10-07T07:26:42.127Z,10.50
2018-10-07T07:27:42.041Z,11.50
2018-10-07T07:28:41.951Z,10.70
2018-10-07T07:29:41.865Z,11.00
2018-10-07T07:30:41.793Z,11.40
2018-10-07T07:31:41.690Z,11.70
2018-10-07T07:32:41.603Z,11.70
2018-10-07T07:33:41.518Z,11.70
2018-10-07T07:34:41.428Z,11.10
2018-10-07T07:35:41.345Z,11.80
2018-10-07T07:36:41.335Z,11.10
2018-10-07T07:37:41.172Z,10.40
2018-10-07T07:38:41.087Z,10.90
2018-10-07T07:39:41.002Z,10.30
2018-10-07T07:40:40.932Z,10.40
2018-10-07T07:41:40.831Z,10.90
2018-10-07T07:42:40.743Z,11.10
2018-10-07T07:43:40.659Z,11.00
2018-10-07T07:44:40.571Z,11.50
2018-10-07T07:45:40.491Z,10.80
2018-10-07T07:46:40.424Z,11.30
2018-10-07T07:47:40.318Z,12.70
2018-10-07T07:48:40.237Z,10.50
2018-10-07T07:49:40.145Z,9.70
2018-10-07T07:50:40.464Z,10.20
2018-10-07T07:51:39.998Z,10.10
2018-10-07T07:52:39.891Z,10.50
2018-10-07T07:53:39.807Z,9.90
2018-10-07T07:54:39.725Z,9.50
2018-10-07T07:55:39.745Z,8.90
2018-10-07T07:56:39.571Z,9.40
2018-10-07T07:57:39.474Z,9.30
2018-10-07T07:58:39.389Z,9.50
2018-10-07T07:59:39.298Z,9.30
2018-10-07T08:00:39.220Z,9.00
2018-10-07T08:01:39.148Z,9.20
2018-10-07T08:02:39.154Z,9.20
2018-10-07T08:03:38.964Z,8.80
2018-10-07T08:04:38.878Z,9.20
2018-10-07T08:05:38.793Z,8.60
2018-10-07T08:06:38.730Z,9.20
2018-10-07T08:07:38.627Z,9.00
2018-10-07T08:08:38.570Z,8.80
2018-10-07T08:09:38.565Z,8.10
2018-10-07T08:10:38.372Z,8.20
2018-10-07T08:11:38.303Z,8.50
2018-10-07T08:12:38.200Z,8.20
2018-10-07T08:13:38.123Z,8.40
2018-10-07T08:14:38.039Z,8.10
2018-10-07T08:15:37.949Z,7.80
2018-10-07T08:16:37.981Z,8.50
2018-10-07T08:17:37.809Z,8.20
2018-10-07T08:18:37.695Z,8.20
2018-10-07T08:19:37.610Z,8.40
2018-10-07T08:20:37.523Z,7.60
2018-10-07T08:21:37.457Z,8.30
2018-10-07T08:22:37.354Z,8.30
2018-10-07T08:23:37.405Z,7.70
2018-10-07T08:24:37.185Z,7.80
2018-10-07T08:25:37.098Z,7.20
2018-10-07T08:26:37.034Z,7.50
2018-10-07T08:27:36.930Z,7.50
2018-10-07T08:28:36.842Z,7.00
2018-10-07T08:29:36.833Z,8.70
2018-10-07T08:30:36.769Z,6.70
2018-10-07T08:31:36.604Z,7.00
2018-10-07T08:32:36.501Z,11.40
2018-10-07T08:33:36.443Z,6.70
2018-10-07T08:34:36.330Z,7.10
2018-10-07T08:35:36.247Z,7.30
2018-10-07T08:36:36.175Z,7.40
2018-10-07T08:37:36.191Z,7.60
2018-10-07T08:38:35.990Z,7.10
2018-10-07T08:39:35.907Z,6.60
2018-10-07T08:40:35.820Z,7.10
2018-10-07T08:41:35.748Z,6.90
2018-10-07T08:42:35.649Z,6.80
2018-10-07T08:43:35.562Z,7.10
2018-10-07T08:44:35.577Z,7.00
2018-10-07T08:45:35.392Z,6.90
2018-10-07T08:46:35.325Z,6.90
2018-10-07T08:47:35.223Z,7.20
2018-10-07T08:48:35.152Z,7.30
2018-10-07T08:49:35.054Z,7.10
2018-10-07T08:50:34.965Z,7.50
2018-10-07T08:51:34.897Z,6.70
2018-10-07T08:52:34.799Z,7.20
2018-10-07T08:53:34.715Z,6.50
2018-10-07T08:54:34.627Z,8.20
2018-10-07T08:55:34.545Z,7.30
2018-10-07T08:56:34.653Z,6.60
2018-10-07T08:57:34.374Z,6.30
2018-10-07T08:58:34.291Z,6.50
2018-10-07T08:59:34.205Z,6.40
2018-10-07T09:00:34.121Z,6.80
2018-10-07T09:01:34.060Z,6.40
2018-10-07T09:02:33.952Z,6.60
2018-10-07T09:03:33.872Z,7.80
2018-10-07T09:04:33.780Z,6.80
2018-10-07T09:05:33.696Z,6.40
2018-10-07T09:06:33.629Z,8.00
2018-10-07T09:07:33.544Z,9.60
2018-10-07T09:08:33.447Z,9.70
2018-10-07T09:09:33.363Z,8.10
2018-10-07T09:10:33.280Z,7.30
2018-10-07T09:11:33.211Z,6.00
2018-10-07T09:12:33.118Z,6.50
2018-10-07T09:13:33.028Z,6.50
2018-10-07T09:14:32.962Z,6.60
2018-10-07T09:15:32.864Z,6.70
2018-10-07T09:16:32.792Z,6.90
2018-10-07T09:17:32.695Z,6.90
2018-10-07T09:18:32.614Z,6.20
2018-10-07T09:19:32.528Z,6.80
2018-10-07T09:20:32.454Z,6.40
2018-10-07T09:21:32.869Z,6.20
2018-10-07T09:22:32.279Z,7.80
2018-10-07T09:23:32.197Z,6.20
2018-10-07T09:24:32.114Z,6.10
2018-10-07T09:25:32.041Z,7.90
2018-10-07T09:26:31.949Z,6.40
2018-10-07T09:27:31.948Z,7.60
2018-10-07T09:28:31.778Z,7.70
2018-10-07T09:29:31.699Z,8.90
2018-10-07T09:30:31.614Z,7.50
2018-10-07T09:31:31.530Z,7.90
2018-10-07T09:32:31.522Z,8.80
2018-10-07T09:33:31.364Z,9.20
2018-10-07T09:34:31.301Z,9.30
2018-10-07T09:35:31.193Z,8.60
2018-10-07T09:36:31.116Z,8.60
2018-10-07T09:37:31.041Z,9.10
2018-10-07T09:38:31.058Z,9.20
2018-10-07T09:39:30.929Z,9.60
2018-10-07T09:40:30.776Z,9.00
2018-10-07T09:41:30.687Z,9.40
2018-10-07T09:42:30.621Z,10.30
2018-10-07T09:43:30.522Z,9.30
2018-10-07T09:44:30.435Z,9.50
2018-10-07T09:45:30.448Z,10.00
2018-10-07T09:46:30.289Z,9.60
2018-10-07T09:47:30.201Z,9.50
2018-10-07T09:48:30.098Z,10.00
2018-10-07T09:49:30.013Z,9.30
2018-10-07T09:50:29.927Z,9.20
2018-10-07T09:51:29.842Z,9.50
2018-10-07T09:52:29.883Z,9.90
2018-10-07T09:53:29.670Z,10.10
2018-10-07T09:54:29.592Z,10.60
2018-10-07T09:55:29.505Z,10.30
2018-10-07T09:56:29.421Z,9.30
2018-10-07T09:57:29.349Z,9.40
2018-10-07T09:58:29.246Z,11.00
2018-10-07T09:59:29.266Z,12.20
2018-10-07T10:00:29.077Z,12.30
2018-10-07T10:01:28.995Z,11.50
2018-10-07T10:02:28.925Z,11.90
2018-10-07T10:03:28.826Z,12.30
2018-10-07T10:04:28.783Z,12.70
2018-10-07T10:05:28.659Z,13.60
2018-10-07T10:06:28.682Z,13.90
2018-10-07T10:07:28.517Z,15.00
2018-10-07T10:08:28.402Z,13.80
2018-10-07T10:09:28.319Z,14.10
2018-10-07T10:10:28.236Z,13.50
2018-10-07T10:11:28.152Z,13.30
2018-10-07T10:12:28.082Z,13.60
2018-10-07T10:13:28.086Z,12.80
2018-10-07T10:14:27.897Z,13.00
2018-10-07T10:15:27.814Z,16.20
2018-10-07T10:16:27.730Z,16.60
2018-10-07T10:17:27.721Z,19.10
2018-10-07T10:18:27.565Z,19.30
2018-10-07T10:19:27.492Z,19.30
2018-10-07T10:20:27.397Z,20.20
2018-10-07T10:21:27.313Z,22.80
2018-10-07T10:22:27.244Z,24.10
2018-10-07T10:23:27.146Z,24.30
2018-10-07T10:24:27.060Z,25.60
2018-10-07T10:25:26.972Z,25.50
2018-10-07T10:26:26.889Z,28.20
2018-10-07T10:27:26.820Z,28.80
2018-10-07T10:28:26.717Z,29.70
2018-10-07T10:29:26.633Z,31.10
2018-10-07T10:30:26.547Z,32.90
2018-10-07T10:31:26.460Z,32.70
2018-10-07T10:32:26.394Z,33.40
2018-10-07T10:33:26.287Z,33.60
2018-10-07T10:34:26.202Z,32.30
2018-10-07T10:35:26.116Z,32.90
2018-10-07T10:36:26.031Z,34.90
2018-10-07T10:37:25.961Z,38.30
2018-10-07T10:38:25.860Z,36.60
2018-10-07T10:39:25.773Z,34.90
2018-10-07T10:40:25.685Z,35.00
2018-10-07T10:41:25.601Z,35.30
2018-10-07T10:42:25.529Z,34.80
2018-10-07T10:43:25.429Z,35.80
2018-10-07T10:44:25.349Z,35.60
2018-10-07T10:45:25.249Z,36.10
2018-10-07T10:46:25.169Z,37.50
2018-10-07T10:47:25.094Z,37.70
2018-10-07T10:48:24.989Z,37.70
2018-10-07T10:49:24.902Z,38.20
2018-10-07T10:50:24.836Z,39.20
2018-10-07T10:51:24.724Z,38.20
2018-10-07T10:52:24.658Z,41.10
2018-10-07T10:53:24.554Z,42.70
2018-10-07T10:54:24.468Z,42.40
2018-10-07T10:55:24.380Z,41.90
2018-10-07T10:56:24.288Z,43.60
2018-10-07T10:57:24.221Z,44.10
2018-10-07T10:58:24.113Z,46.80
2018-10-07T10:59:24.058Z,46.10
2018-10-07T11:00:23.941Z,45.50
2018-10-07T11:01:23.850Z,48.90
2018-10-07T11:02:23.796Z,49.40
2018-10-07T11:03:23.674Z,49.90
2018-10-07T11:04:23.659Z,49.90
2018-10-07T11:05:23.502Z,50.60
2018-10-07T11:06:23.407Z,49.60
2018-10-07T11:07:23.349Z,50.00
2018-10-07T11:08:23.337Z,50.90
2018-10-07T11:09:23.142Z,50.70
2018-10-07T11:10:23.052Z,51.60
2018-10-07T11:11:22.965Z,51.50
2018-10-07T11:12:22.894Z,50.90
2018-10-07T11:13:22.788Z,50.60
2018-10-07T11:14:22.699Z,54.50
2018-10-07T11:15:22.751Z,54.60
2018-10-07T11:16:22.521Z,55.50
2018-10-07T11:17:22.435Z,56.70
2018-10-07T11:18:22.359Z,59.90
2018-10-07T11:19:22.269Z,63.00
2018-10-07T11:20:22.161Z,63.50
2018-10-07T11:21:22.074Z,65.50
2018-10-07T11:22:22.105Z,65.30
2018-10-07T11:23:21.912Z,66.90
2018-10-07T11:24:21.805Z,66.90
2018-10-07T11:25:21.715Z,69.90
2018-10-07T11:26:21.629Z,69.40
2018-10-07T11:27:21.540Z,71.10
2018-10-07T11:28:21.459Z,70.50
2018-10-07T11:29:21.456Z,72.00
2018-10-07T11:30:21.266Z,71.90
2018-10-07T11:31:21.175Z,72.30
2018-10-07T11:32:21.093Z,72.50
2018-10-07T11:33:21.011Z,72.30
2018-10-07T11:34:20.903Z,71.20
2018-10-07T11:35:20.815Z,72.10
2018-10-07T11:36:20.827Z,72.80
2018-10-07T11:37:20.631Z,71.80
2018-10-07T11:38:20.559Z,71.70
2018-10-07T11:39:20.455Z,71.60
2018-10-07T11:40:20.359Z,71.50
2018-10-07T11:41:20.269Z,69.20
2018-10-07T11:42:20.183Z,69.60
2018-10-07T11:43:20.224Z,69.40
2018-10-07T11:44:19.998Z,67.70
2018-10-07T11:45:19.911Z,71.10
2018-10-07T11:46:19.817Z,72.70
2018-10-07T11:47:19.728Z,72.10
2018-10-07T11:48:19.654Z,73.70
2018-10-07T11:49:19.546Z,75.50
2018-10-07T11:50:19.562Z,77.20
2018-10-07T11:51:19.366Z,78.40
2018-10-07T11:52:19.276Z,81.10
2018-10-07T11:53:19.201Z,82.50
2018-10-07T11:54:19.102Z,82.30
2018-10-07T11:55:19.003Z,82.00
2018-10-07T11:56:18.906Z,84.40
2018-10-07T11:57:18.921Z,83.10
2018-10-07T11:58:18.747Z,84.20
2018-10-07T11:59:18.636Z,83.70
2018-10-07T12:00:18.544Z,82.90
2018-10-07T12:01:18.452Z,83.50
2018-10-07T12:02:18.480Z,84.40
2018-10-07T12:03:18.290Z,84.60
2018-10-07T12:04:18.186Z,81.60
2018-10-07T12:05:18.088Z,79.20
2018-10-07T12:06:17.994Z,79.90
2018-10-07T12:07:17.906Z,79.40
2018-10-07T12:08:17.826Z,82.00
2018-10-07T12:09:17.720Z,79.10
2018-10-07T12:10:17.683Z,80.50
2018-10-07T12:11:17.540Z,78.40
2018-10-07T12:12:17.443Z,77.30
2018-10-07T12:13:17.368Z,77.40
2018-10-07T12:14:17.261Z,72.10
2018-10-07T12:15:17.167Z,72.30
2018-10-07T12:16:17.127Z,73.50
2018-10-07T12:17:16.986Z,72.60
2018-10-07T12:18:16.907Z,73.10
2018-10-07T12:19:16.805Z,73.10
2018-10-07T12:20:16.708Z,84.60
2018-10-07T12:21:16.616Z,71.90
2018-10-07T12:22:16.524Z,73.70
2018-10-07T12:23:16.449Z,69.70
2018-10-07T12:24:16.347Z,67.50
2018-10-07T12:25:16.250Z,66.70
2018-10-07T12:26:16.154Z,65.10
2018-10-07T12:27:16.067Z,64.40
2018-10-07T12:28:15.994Z,63.60
2018-10-07T12:29:15.882Z,62.30
2018-10-07T12:30:15.792Z,63.70
2018-10-07T12:31:15.699Z,64.30
2018-10-07T12:32:15.605Z,63.40
2018-10-07T12:33:15.530Z,62.10
2018-10-07T12:34:15.424Z,62.00
2018-10-07T12:35:15.329Z,62.90
2018-10-07T12:36:15.244Z,61.90
2018-10-07T12:37:15.143Z,64.90
2018-10-07T12:38:15.178Z,63.40
2018-10-07T12:39:14.963Z,64.70
2018-10-07T12:40:14.875Z,64.80
2018-10-07T12:41:14.777Z,65.30
2018-10-07T12:42:14.690Z,63.80
2018-10-07T12:43:14.608Z,64.80
2018-10-07T12:44:14.506Z,65.40
2018-10-07T12:45:14.416Z,65.00
2018-10-07T12:46:14.318Z,66.20
2018-10-07T12:47:14.226Z,63.50
2018-10-07T12:48:14.151Z,63.20
2018-10-07T12:49:14.038Z,62.10
2018-10-07T12:50:13.948Z,61.80
2018-10-07T12:51:13.863Z,62.40
2018-10-07T12:52:13.865Z,61.00
2018-10-07T12:53:13.690Z,62.50
2018-10-07T12:54:13.635Z,61.00
2018-10-07T12:55:13.490Z,60.60
2018-10-07T12:56:13.399Z,60.50